Ana Sayfa
METAR-TAF:

METAR-TAF

Havaalanları :

Chignik, Alaska, Amerika Birleşik Devletleri

Enlem: 56-18-41N, Boylam: 158-22-24W, yükseklik: 6 m

Güncel hava durumu gözlemi

Rapor saat 08:57 UTC de 2 saat ve 10 dakika önce yapıldı.
Rüzgar güneybatıdan 7 kt
Sıcaklık 4°C
Nem 56%
Basınç 1009 hPa
Görüş mesafesi: 16.1 km
4500 ft yükseklikte parçalı çok bulutlu
5000 ft yükseklikte çok bulutlu

METAR: PAJC 120857Z AUTO 23007KT 10SM BKN045 OVC050 04/M04 A2979 RMK AO2 SLP090 T00441039 400611011 53013 $

Saat: 03:07 (11:07 UTC)


TAF: eksik

4.000'den fazla havaalanı için hava durumu gözlemleri ve tahminleri (METAR ve TAF raporları).

Kullanılabilir istasyonlar harita üzerinde sarı ve kırmızı noktalarla gösterilir.

İstasyonun adını görmek için fareyi noktanın üzerinde gezdirin.

Sonrasında hava gözlem ve tahminlerini görmek için tıklayın.

Haritayı değiştirmek için: yaklaştırmak için siyah artı işaretli yeşil düğmeye ve uzaklaştırmak için de eksi işaretli düğmeye hızla tıklayın; bitişik haritalar için yeşil okları kullanın.


METAR-TAF: